Latest Weather Observations for Nowra

IDN60901

Issued at 12:02 pm EST Friday 14 May 2021 (issued every 10 minutes, with the page automatically refreshed every 10 minutes)

About weather observations | Map of Canberra area stations | Latest observations for Canberra area | Other Formats
Station Details ID: 068072 Name: NOWRA RAN AIR STATION AWS Lat: -34.95 Lon: 150.54 Height: 109.0 m
Data from the previous 72 hours. | See also: Recent months at Nowra
Date/Time
EST
Temp
°C
App
Temp
°C
Dew
Point
°C
Rel
Hum
%
Delta-T
°C
Wind Press
QNH
hPa
Press
MSL
hPa
Rain since
9am
mm
Dir  Spd
km/h
Gust
km/h
Spd
kts
Gust
kts
14/11:30am 16.4 9.4 1.7 37 6.6 WNW 28 37 15 20 1011.6 1011.6 0.0
14/11:00am 16.7 11.0 2.7 39 6.4 WNW 22 35 12 19 1011.8 1011.8 0.0
14/10:30am 16.4 10.9 4.1 44 5.8 W 22 32 12 17 1012.3 1012.3 0.0
14/10:00am 15.5 9.6 3.9 46 5.4 W 24 39 13 21 1012.3 1012.3 0.0
14/09:30am 14.9 8.9 3.4 46 5.2 W 24 33 13 18 1012.0 1012.0 0.0
14/09:00am 14.2 6.2 3.7 49 4.8 W 35 50 19 27 1011.8 1011.8 0.0
14/08:30am 13.9 7.0 4.5 53 4.4 WNW 30 43 16 23 1011.5 1011.5 0.0
14/08:00am 13.6 6.7 4.7 55 4.1 W 30 43 16 23 1011.1 1011.1 0.0
14/07:30am 13.2 6.7 4.9 57 3.9 W 28 39 15 21 1010.4 1010.3 0.0
14/07:00am 12.7 7.0 4.9 59 3.6 WNW 24 35 13 19 1010.1 1010.0 0.0
14/06:30am 13.1 7.4 5.0 58 3.8 WNW 24 33 13 18 1009.7 1009.6 0.0
14/06:00am 13.4 8.1 4.8 56 4.0 WNW 22 30 12 16 1009.3 1009.2 0.0
14/05:30am 13.6 9.2 4.7 55 4.1 WNW 17 32 9 17 1009.2 1009.1 0.0
14/05:00am 13.7 8.5 5.3 57 4.0 WNW 22 32 12 17 1009.1 1009.0 0.0
14/04:30am 13.4 10.0 6.0 61 3.5 NW 13 19 7 10 1009.1 1009.0 0.0
14/04:00am 13.3 11.2 5.7 60 3.6 WNW 6 11 3 6 1008.7 1008.6 0.0
14/03:30am 14.3 9.6 5.9 57 4.0 WNW 20 32 11 17 1008.6 1008.5 0.0
14/03:00am 14.7 11.3 5.8 55 4.3 WSW 13 17 7 9 1008.6 1008.5 0.0
14/02:30am 14.9 10.3 5.7 54 4.4 WSW 19 30 10 16 1008.4 1008.3 0.0
14/02:00am 14.9 11.1 5.7 54 4.4 W 15 26 8 14 1008.5 1008.4 0.0
14/01:30am 14.7 11.3 6.0 56 4.2 W 13 20 7 11 1008.7 1008.6 0.0
14/01:00am 14.7 11.8 6.3 57 4.1 WSW 11 24 6 13 1008.8 1008.7 0.0
14/12:30am 15.0 12.1 6.3 56 4.2 SW 11 20 6 11 1008.8 1008.7 0.0
14/12:00am 15.1 10.5 6.7 57 4.1 W 20 37 11 20 1008.8 1008.7 0.0
 
Date/Time
EST
Temp
°C
App
Temp
°C
Dew
Point
°C
Rel
Hum
%
Delta-T
°C
Wind Press
QNH
hPa
Press
MSL
hPa
Rain since
9am
mm
Dir  Spd
km/h
Gust
km/h
Spd
kts
Gust
kts
13/11:30pm 15.1 11.5 6.9 58 4.0 W 15 24 8 13 1009.0 1008.9 0.0
13/11:00pm 15.0 11.9 7.1 59 3.9 NW 13 20 7 11 1009.3 1009.2 0.0
13/10:30pm 15.2 12.1 7.3 59 3.9 NW 13 24 7 13 1009.9 1009.8 0.0
13/10:00pm 15.7 11.4 7.0 56 4.3 WNW 19 39 10 21 1010.0 1009.9 0.0
13/09:30pm 16.2 10.9 6.6 53 4.7 W 24 33 13 18 1009.9 1009.8 0.0
13/09:00pm 15.8 11.4 6.5 54 4.6 W 19 30 10 16 1010.0 1009.9 0.0
13/08:30pm 16.7 11.0 6.5 51 5.0 W 26 37 14 20 1009.8 1009.7 0.0
13/08:00pm 17.0 11.3 6.5 50 5.2 WNW 26 35 14 19 1009.3 1009.2 0.0
13/07:30pm 17.4 11.5 6.0 47 5.6 WNW 26 37 14 20 1009.4 1009.3 0.0
13/07:00pm 17.3 12.6 5.3 45 5.8 WNW 19 26 10 14 1009.6 1009.5 0.0
13/06:30pm 17.4 13.3 6.3 48 5.5 WNW 17 30 9 16 1009.4 1009.3 0.0
13/06:00pm 17.6 13.6 6.8 49 5.4 WNW 17 28 9 15 1009.2 1009.1 0.0
13/05:30pm 17.4 13.8 6.6 49 5.4 WNW 15 20 8 11 1009.1 1009.0 0.0
13/05:00pm 18.0 14.9 7.4 50 5.4 WNW 13 19 7 10 1009.3 1009.2 0.0
13/04:30pm 18.6 16.1 8.0 50 5.5 W 11 15 6 8 1009.2 1009.1 0.0
13/04:00pm 19.0 14.4 8.1 49 5.6 WNW 22 30 12 16 1009.2 1009.1 0.0
13/03:30pm 20.0 15.0 8.0 46 6.2 W 24 33 13 18 1009.6 1009.5 0.0
13/03:00pm 20.4 14.3 6.7 41 7.0 W 28 43 15 23 1009.2 1009.1 0.0
13/02:30pm 21.1 15.0 6.6 39 7.4 WNW 28 39 15 21 1009.0 1008.9 0.0
13/02:00pm 21.6 17.0 6.7 38 7.6 WNW 20 35 11 19 1009.2 1009.1 0.0
13/01:30pm 21.6 16.0 7.1 39 7.5 WNW 26 41 14 22 1009.5 1009.4 0.0
13/01:00pm 21.7 17.4 7.9 41 7.2 WNW 20 30 11 16 1010.0 1009.9 0.0
13/12:30pm 21.4 18.2 9.9 48 6.2 WNW 17 22 9 12 1010.6 1010.5 0.0
13/12:00pm 20.8 18.9 10.6 52 5.6 WNW 11 17 6 9 1011.4 1011.4 0.0
13/11:30am 19.8 18.1 11.3 58 4.7 NNW 11 17 6 9 1012.1 1012.1 0.0
13/11:00am 19.2 17.3 11.7 62 4.2 NW 13 19 7 10 1012.4 1012.4 0.0
13/10:30am 17.8 15.0 11.4 66 3.5 NW 17 22 9 12 1013.2 1013.1 0.0
13/10:00am 17.1 15.3 12.2 73 2.7 NW 13 19 7 10 1013.6 1013.5 0.0
13/09:30am 15.7 13.3 11.5 76 2.3 NW 15 20 8 11 1014.1 1014.0 0.0
13/09:00am 14.8 12.1 11.6 81 1.7 NW 17 22 9 12 1014.2 1014.1 0.0
13/08:30am 14.4 13.3 11.9 85 1.4 NW 9 13 5 7 1014.3 1014.2 0.0
13/08:00am 13.2 10.9 11.9 92 0.7 NW 15 20 8 11 1014.3 1014.2 0.0
13/07:30am 12.1 9.1 11.9 99 0.1 NW 19 22 10 12 1014.1 1014.0 0.0
13/07:00am 11.4 8.9 11.2 99 0.1 WNW 15 19 8 10 1014.2 1014.1 0.0
13/06:30am 11.6 9.2 11.4 99 0.1 WNW 15 17 8 9 1014.2 1014.1 0.0
13/06:00am 11.8 10.7 11.8 100 0.0 NNW 9 11 5 6 1014.5 1014.4 0.0
13/05:30am 12.1 10.3 12.1 100 0.0 WNW 13 15 7 8 1014.5 1014.4 0.0
13/05:00am 12.0 10.9 12.0 100 0.0 WNW 9 13 5 7 1014.5 1014.4 0.0
13/04:30am 11.7 12.2 11.7 100 0.0 CALM 0 0 0 0 1014.6 1014.5 0.0
13/04:00am 12.1 11.0 12.1 100 0.0 WNW 9 11 5 6 1014.8 1014.7 0.0
13/03:30am 12.5 11.6 12.5 100 0.0 W 9 13 5 7 1015.0 1014.9 0.0
13/03:00am 12.4 11.1 12.4 100 0.0 WNW 11 15 6 8 1015.3 1015.2 0.0
13/02:30am 11.7 11.1 11.7 100 0.0 W 6 7 3 4 1015.4 1015.3 0.0
13/02:00am 12.2 12.8 12.0 99 0.1 CALM 0 0 0 0 1015.9 1015.8 0.0
13/01:30am 12.7 11.4 12.5 99 0.1 NNW 11 13 6 7 1016.1 1016.0 0.0
13/01:00am 13.1 11.5 12.9 99 0.1 WNW 13 15 7 8 1016.0 1015.9 0.0
13/12:30am 13.7 11.6 13.5 99 0.1 WNW 17 20 9 11 1016.2 1016.1 0.0
13/12:00am 13.2 12.1 13.2 100 0.0 WNW 11 13 6 7 1016.7 1016.6 0.0
 
Date/Time
EST
Temp
°C
App
Temp
°C
Dew
Point
°C
Rel
Hum
%
Delta-T
°C
Wind Press
QNH
hPa
Press
MSL
hPa
Rain since
9am
mm
Dir  Spd
km/h
Gust
km/h
Spd
kts
Gust
kts
12/11:30pm 12.8 12.5 12.6 99 0.1 WNW 6 7 3 4 1017.0 1016.9 0.0
12/11:00pm 13.5 12.5 13.3 99 0.1 WNW 11 13 6 7 1017.7 1017.6 0.0
12/10:30pm 13.6 14.7 13.4 99 0.1 CALM 0 0 0 0 1018.2 1018.1 0.0
12/10:00pm 13.6 13.0 13.4 99 0.1 W 9 13 5 7 1018.5 1018.4 0.0
12/09:30pm 12.9 13.7 12.7 99 0.1 CALM 0 7 0 4 1018.5 1018.4 0.0
12/09:00pm 13.5 14.2 13.3 99 0.1 NW 2 7 1 4 1018.5 1018.4 0.0
12/08:30pm 13.6 12.6 13.4 99 0.1 WNW 11 13 6 7 1018.3 1018.2 0.0
12/08:00pm 14.2 13.5 13.1 93 0.6 SW 9 11 5 6 1018.6 1018.5 0.0
12/07:30pm 14.6 12.9 13.6 94 0.6 SSW 15 17 8 9 1018.6 1018.5 0.0
12/07:00pm 15.1 14.9 14.6 97 0.3 SW 9 11 5 6 1019.0 1019.0 0.0
12/06:30pm 14.8 14.6 14.6 99 0.1 SW 9 11 5 6 1018.7 1018.6 0.0
12/06:00pm 14.0 13.6 13.1 94 0.5 S 7 9 4 5 1018.5 1018.4 0.0
12/05:30pm 14.5 13.6 12.7 89 1.0 SSW 9 11 5 6 1018.0 1017.9 0.0
12/05:00pm 16.2 15.5 13.3 83 1.6 SSW 9 11 5 6 1017.9 1017.8 0.0
12/04:30pm 17.5 16.2 13.6 78 2.2 SSE 13 22 7 12 1018.1 1018.0 0.0
12/04:00pm 18.3 17.0 13.6 74 2.7 SE 13 17 7 9 1018.2 1018.1 0.0
12/03:30pm 18.7 17.1 12.7 68 3.4 SSE 13 32 7 17 1018.3 1018.2 0.0
12/03:00pm 18.8 16.6 12.1 65 3.7 SE 15 19 8 10 1018.3 1018.2 0.0
12/02:30pm 19.4 17.5 12.9 66 3.7 SE 15 26 8 14 1018.5 1018.4 0.0
12/02:00pm 19.5 17.8 12.3 63 4.0 SE 13 17 7 9 1018.4 1018.3 0.0
12/01:30pm 19.2 17.5 12.5 65 3.8 SE 13 20 7 11 1018.7 1018.6 0.0
12/01:00pm 19.0 17.4 12.7 67 3.5 SE 13 19 7 10 1018.9 1018.8 0.0
12/12:30pm 19.3 18.9 12.3 64 3.9 SE 6 11 3 6 1019.3 1019.3 0.0
12/12:00pm 19.1 18.4 13.3 69 3.3 SSE 9 15 5 8 1019.7 1019.7 0.0
12/11:30am 18.4 17.5 12.6 69 3.3 SSE 9 13 5 7 1020.2 1020.2 0.0
12/11:00am 18.1 17.8 13.4 74 2.7 SSE 7 11 4 6 1020.5 1020.5 0.0
12/10:30am 17.5 17.2 12.6 73 2.7 S 6 15 3 8 1020.8 1020.8 0.0
12/10:00am 17.0 16.5 12.7 76 2.4 NNW 7 13 4 7 1021.0 1021.0 0.0
12/09:30am 15.6 14.8 12.9 84 1.5 NW 9 13 5 7 1021.0 1021.0 0.0
12/09:00am 13.5 11.8 12.4 93 0.6 WNW 13 15 7 8 1021.2 1021.2 1.0
12/08:30am 12.4 10.2 12.2 99 0.1 WNW 15 17 8 9 1021.1 1021.1 1.0
12/08:00am 11.9 10.7 11.7 99 0.1 NW 9 13 5 7 1020.9 1020.9 1.0
12/07:30am 11.4 10.1 11.2 99 0.1 NNW 9 13 5 7 1020.6 1020.6 1.0
12/07:00am 10.8 7.8 10.8 100 0.0 WNW 17 20 9 11 1019.9 1019.9 0.8
12/06:30am 10.8 9.0 10.8 100 0.0 WNW 11 15 6 8 1019.9 1019.9 0.8
12/06:00am 10.8 8.2 10.8 100 0.0 WNW 15 19 8 10 1019.8 1019.8 0.8
12/05:30am 10.5 8.6 10.5 100 0.0 W 11 17 6 9 1019.6 1019.6 0.8
12/05:00am 10.7 9.2 10.7 100 0.0 WNW 9 13 5 7 1019.6 1019.6 0.8
12/04:30am 11.1 10.1 11.1 100 0.0 W 7 13 4 7 1019.2 1019.2 0.8
12/04:00am 10.9 9.5 10.9 100 0.0 W 9 11 5 6 1019.1 1019.1 0.8
12/03:30am 11.3 9.2 11.3 100 0.0 NW 13 15 7 8 1019.1 1019.1 0.8
12/03:00am 11.7 10.1 11.7 100 0.0 WNW 11 13 6 7 1018.9 1018.8 0.8
12/02:30am 11.7 10.1 11.7 100 0.0 W 11 13 6 7 1019.2 1019.2 0.8
12/02:00am 11.9 10.8 11.9 100 0.0 W 9 11 5 6 1019.3 1019.3 0.8
12/01:30am 12.3 11.6 12.1 99 0.1 W 7 9 4 5 1019.5 1019.5 0.8
12/01:00am 12.4 11.4 12.2 99 0.1 NW 9 13 5 7 1019.3 1019.3 0.8
12/12:30am 12.5 11.1 12.3 99 0.1 WNW 11 13 6 7 1019.3 1019.3 0.8
12/12:00am 12.5 11.6 12.5 100 0.0 WNW 9 11 5 6 1019.3 1019.3 0.8
 
Date/Time
EST
Temp
°C
App
Temp
°C
Dew
Point
°C
Rel
Hum
%
Delta-T
°C
Wind Press
QNH
hPa
Press
MSL
hPa
Rain since
9am
mm
Dir  Spd
km/h
Gust
km/h
Spd
kts
Gust
kts
11/11:30pm 12.6 11.3 12.6 100 0.0 NNW 11 13 6 7 1019.6 1019.6 0.8
11/11:00pm 12.5 11.2 12.5 100 0.0 WNW 11 13 6 7 1019.3 1019.3 0.8
11/10:30pm 12.2 11.6 12.2 100 0.0 NNW 7 11 4 6 1019.3 1019.3 0.8
11/10:00pm 13.1 12.7 13.1 100 0.0 NW 7 9 4 5 1019.4 1019.4 0.8
11/09:30pm 12.9 12.5 12.9 100 0.0 WNW 7 9 4 5 1019.3 1019.3 0.8
11/09:00pm 13.5 12.8 13.3 99 0.1 WNW 9 9 5 5 1019.2 1019.2 0.8
11/08:30pm 14.1 14.0 13.9 99 0.1 SW 7 9 4 5 1018.9 1018.8 0.8
11/08:00pm 14.3 14.5 14.1 99 0.1 SSW 6 9 3 5 1018.7 1018.6 0.8
11/07:30pm 14.3 14.5 14.1 99 0.1 SSW 6 9 3 5 1018.4 1018.3 0.8
11/07:00pm 14.3 13.5 14.1 99 0.1 SSW 11 15 6 8 1018.0 1017.9 0.8
11/06:30pm 13.7 14.4 13.4 98 0.2 SSW 2 13 1 7 1017.6 1017.5 0.8
11/06:00pm 13.8 13.1 13.3 97 0.3 SW 9 11 5 6 1017.1 1017.0 0.8
11/05:30pm 14.0 13.6 12.9 93 0.6 SSW 7 9 4 5 1016.4 1016.3 0.6
11/05:00pm 14.2 12.0 12.1 87 1.1 SW 15 20 8 11 1016.2 1016.1 0.6
11/04:30pm 15.2 12.9 13.1 87 1.2 SSW 17 28 9 15 1016.0 1015.9 0.4
11/04:00pm 16.2 15.5 14.4 89 1.0 S 11 17 6 9 1015.6 1015.5 0.0
11/03:30pm 16.9 15.3 13.8 82 1.8 SSE 15 20 8 11 1015.0 1014.9 0.0
11/03:00pm 17.3 14.3 12.6 74 2.6 SSE 20 24 11 13 1014.9 1014.8 0.0
11/02:30pm 19.1 17.9 9.6 54 5.1 NW 6 7 3 4 1014.5 1014.4 0.0
11/02:00pm 19.0 17.3 9.8 55 4.9 NW 9 13 5 7 1014.3 1014.2 0.0
11/01:30pm 19.3 16.7 9.5 53 5.2 WNW 13 15 7 8 1014.0 1013.9 0.0
11/01:00pm 19.0 17.3 10.0 56 4.8 WNW 9 13 5 7 1013.8 1013.7 0.0
11/12:30pm 19.1 17.3 10.9 59 4.5 WNW 11 17 6 9 1014.0 1013.9 0.0

Latest Capital City Observations: Canberra | Sydney | Melbourne | Brisbane | Adelaide | Perth | Hobart | Darwin

Other formats

Comma delimited format used in spreadsheet applications
http://www.bom.gov.au/fwo/IDN60903/IDN60903.94750.axf

JavaScript Object Notation format (JSON) in row-major order
http://www.bom.gov.au/fwo/IDN60903/IDN60903.94750.json

Data quality

Most of these data are generated automatically and are frequently updated. Quality checks on data are not normally performed. It is possible for incorrect values to appear. Refer to information at About Latest Weather Observations and please check the disclaimer before using these data.